sensor_id;sensor_type;location;lat;lon;timestamp;pressure;altitude;pressure_sealevel;temperature;humidity
20145;BME280;10233;50.814;6.590;2023-05-23T00:00:15;100412.47;;;16.25;100.00
20145;BME280;10233;50.814;6.590;2023-05-23T00:01:17;100412.22;;;16.26;100.00
20145;BME280;10233;50.814;6.590;2023-05-23T00:02:17;100409.09;;;16.29;100.00
20145;BME280;10233;50.814;6.590;2023-05-23T00:03:18;100415.50;;;16.28;100.00
20145;BME280;10233;50.814;6.590;2023-05-23T00:04:21;100415.72;;;16.38;100.00
20145;BME280;10233;50.814;6.590;2023-05-23T00:05:26;100417.41;;;16.39;100.00
20145;BME280;10233;50.814;6.590;2023-05-23T00:06:26;100410.97;;;16.40;100.00
20145;BME280;10233;50.814;6.590;2023-05-23T00:07:27;100414.44;;;16.41;100.00
20145;BME280;10233;50.814;6.590;2023-05-23T00:08:27;100413.66;;;16.40;100.00
20145;BME280;10233;50.814;6.590;2023-05-23T00:09:27;100394.63;;;16.42;100.00
20145;BME280;10233;50.814;6.590;2023-05-23T00:10:28;100409.69;;;16.43;100.00
20145;BME280;10233;50.814;6.590;2023-05-23T00:11:28;100406.41;;;16.41;100.00
20145;BME280;10233;50.814;6.590;2023-05-23T00:12:30;100407.53;;;16.33;100.00
20145;BME280;10233;50.814;6.590;2023-05-23T00:13:30;100404.28;;;16.31;100.00
20145;BME280;10233;50.814;6.590;2023-05-23T00:14:33;100403.34;;;16.26;100.00
20145;BME280;10233;50.814;6.590;2023-05-23T00:15:34;100406.03;;;16.26;100.00
20145;BME280;10233;50.814;6.590;2023-05-23T00:16:39;100406.19;;;16.19;100.00
20145;BME280;10233;50.814;6.590;2023-05-23T00:17:40;100405.69;;;16.22;100.00
20145;BME280;10233;50.814;6.590;2023-05-23T00:18:41;100408.97;;;16.24;100.00
20145;BME280;10233;50.814;6.590;2023-05-23T00:19:44;100400.81;;;16.19;100.00
20145;BME280;10233;50.814;6.590;2023-05-23T00:20:45;100409.09;;;16.18;100.00
20145;BME280;10233;50.814;6.590;2023-05-23T00:21:46;100401.03;;;16.18;100.00
20145;BME280;10233;50.814;6.590;2023-05-23T00:22:48;100398.00;;;16.14;100.00
20145;BME280;10233;50.814;6.590;2023-05-23T00:23:49;100404.19;;;16.15;100.00
20145;BME280;10233;50.814;6.590;2023-05-23T00:24:49;100407.94;;;16.14;100.00
20145;BME280;10233;50.814;6.590;2023-05-23T00:25:50;100400.56;;;16.09;100.00
20145;BME280;10233;50.814;6.590;2023-05-23T00:26:53;100413.41;;;16.07;100.00
20145;BME280;10233;50.814;6.590;2023-05-23T00:27:53;100403.72;;;16.06;100.00
20145;BME280;10233;50.814;6.590;2023-05-23T00:28:54;100401.50;;;16.03;100.00
20145;BME280;10233;50.814;6.590;2023-05-23T00:29:55;100411.44;;;16.03;100.00
20145;BME280;10233;50.814;6.590;2023-05-23T00:30:55;100405.34;;;15.96;100.00
20145;BME280;10233;50.814;6.590;2023-05-23T00:31:56;100409.09;;;15.95;100.00
20145;BME280;10233;50.814;6.590;2023-05-23T00:32:57;100412.34;;;15.85;100.00
20145;BME280;10233;50.814;6.590;2023-05-23T00:33:58;100414.22;;;15.85;100.00
20145;BME280;10233;50.814;6.590;2023-05-23T00:34:58;100409.56;;;15.80;100.00
20145;BME280;10233;50.814;6.590;2023-05-23T00:35:59;100403.13;;;15.81;100.00
20145;BME280;10233;50.814;6.590;2023-05-23T00:36:59;100406.03;;;15.80;100.00
20145;BME280;10233;50.814;6.590;2023-05-23T00:38:01;100412.22;;;15.80;100.00
20145;BME280;10233;50.814;6.590;2023-05-23T00:39:02;100412.91;;;15.76;100.00
20145;BME280;10233;50.814;6.590;2023-05-23T00:40:04;100408.59;;;15.75;100.00
20145;BME280;10233;50.814;6.590;2023-05-23T00:41:05;100409.75;;;15.67;100.00
20145;BME280;10233;50.814;6.590;2023-05-23T00:42:06;100409.75;;;15.67;100.00
20145;BME280;10233;50.814;6.590;2023-05-23T00:43:07;100413.72;;;15.65;100.00
20145;BME280;10233;50.814;6.590;2023-05-23T00:44:08;100417.81;;;15.67;100.00
20145;BME280;10233;50.814;6.590;2023-05-23T00:45:09;100409.63;;;15.62;100.00
20145;BME280;10233;50.814;6.590;2023-05-23T00:46:11;100416.03;;;15.61;100.00
20145;BME280;10233;50.814;6.590;2023-05-23T00:47:12;100412.31;;;15.62;100.00
20145;BME280;10233;50.814;6.590;2023-05-23T00:48:13;100405.91;;;15.63;100.00
20145;BME280;10233;50.814;6.590;2023-05-23T00:49:15;100406.34;;;15.60;100.00
20145;BME280;10233;50.814;6.590;2023-05-23T00:50:19;100409.03;;;15.60;100.00
20145;BME280;10233;50.814;6.590;2023-05-23T00:51:20;100410.31;;;15.58;100.00
20145;BME280;10233;50.814;6.590;2023-05-23T00:52:21;100409.72;;;15.56;100.00
20145;BME280;10233;50.814;6.590;2023-05-23T00:53:21;100412.63;;;15.54;100.00
20145;BME280;10233;50.814;6.590;2023-05-23T00:54:27;100404.81;;;15.53;100.00
20145;BME280;10233;50.814;6.590;2023-05-23T00:55:29;100400.72;;;15.50;100.00
20145;BME280;10233;50.814;6.590;2023-05-23T00:56:30;100405.06;;;15.51;100.00
20145;BME280;10233;50.814;6.590;2023-05-23T00:57:31;100399.09;;;15.49;100.00
20145;BME280;10233;50.814;6.590;2023-05-23T00:58:34;100406.56;;;15.47;100.00
20145;BME280;10233;50.814;6.590;2023-05-23T00:59:35;100412.28;;;15.51;100.00
20145;BME280;10233;50.814;6.590;2023-05-23T01:00:37;100407.16;;;15.49;100.00
20145;BME280;10233;50.814;6.590;2023-05-23T01:01:38;100407.75;;;15.51;100.00
20145;BME280;10233;50.814;6.590;2023-05-23T01:02:44;100409.81;;;15.49;100.00
20145;BME280;10233;50.814;6.590;2023-05-23T01:03:45;100412.28;;;15.51;100.00
20145;BME280;10233;50.814;6.590;2023-05-23T01:04:48;100416.00;;;15.50;100.00
20145;BME280;10233;50.814;6.590;2023-05-23T01:05:54;100410.19;;;15.53;100.00
20145;BME280;10233;50.814;6.590;2023-05-23T01:06:55;100415.19;;;15.49;100.00
20145;BME280;10233;50.814;6.590;2023-05-23T01:07:56;100411.72;;;15.49;100.00
20145;BME280;10233;50.814;6.590;2023-05-23T01:08:56;100414.63;;;15.47;100.00
20145;BME280;10233;50.814;6.590;2023-05-23T01:10:01;100419.63;;;15.44;100.00
20145;BME280;10233;50.814;6.590;2023-05-23T01:11:06;100417.72;;;15.44;100.00
20145;BME280;10233;50.814;6.590;2023-05-23T01:12:26;100425.56;;;15.46;100.00
20145;BME280;10233;50.814;6.590;2023-05-23T01:13:41;100423.56;;;15.41;100.00
20145;BME280;10233;50.814;6.590;2023-05-23T01:14:49;100430.34;;;15.44;100.00
20145;BME280;10233;50.814;6.590;2023-05-23T01:16:37;100427.28;;;15.40;100.00
20145;BME280;10233;50.814;6.590;2023-05-23T01:17:22;100426.00;;;15.43;100.00
20145;BME280;10233;50.814;6.590;2023-05-23T01:18:39;100423.09;;;15.44;100.00
20145;BME280;10233;50.814;6.590;2023-05-23T01:20:01;100430.47;;;15.49;100.00
20145;BME280;10233;50.814;6.590;2023-05-23T01:21:14;100427.66;;;15.55;100.00
20145;BME280;10233;50.814;6.590;2023-05-23T01:24:12;100425.72;;;15.62;100.00
20145;BME280;10233;50.814;6.590;2023-05-23T01:27:54;100418.97;;;15.71;100.00
20145;BME280;10233;50.814;6.590;2023-05-23T01:29:00;100420.13;;;15.75;100.00
20145;BME280;10233;50.814;6.590;2023-05-23T01:30:07;100424.69;;;15.75;100.00
20145;BME280;10233;50.814;6.590;2023-05-23T01:31:10;100422.81;;;15.75;100.00
20145;BME280;10233;50.814;6.590;2023-05-23T01:32:13;100423.41;;;15.77;100.00
20145;BME280;10233;50.814;6.590;2023-05-23T01:33:15;100418.63;;;15.79;100.00
20145;BME280;10233;50.814;6.590;2023-05-23T01:34:18;100416.44;;;15.88;100.00
20145;BME280;10233;50.814;6.590;2023-05-23T01:35:24;100417.34;;;15.93;100.00
20145;BME280;10233;50.814;6.590;2023-05-23T01:36:27;100421.53;;;15.89;100.00
20145;BME280;10233;50.814;6.590;2023-05-23T01:37:28;100416.19;;;15.89;100.00
20145;BME280;10233;50.814;6.590;2023-05-23T01:38:29;100413.75;;;15.88;100.00
20145;BME280;10233;50.814;6.590;2023-05-23T01:39:30;100424.84;;;15.91;100.00
20145;BME280;10233;50.814;6.590;2023-05-23T01:40:30;100418.41;;;15.92;100.00
20145;BME280;10233;50.814;6.590;2023-05-23T01:41:31;100416.78;;;15.91;100.00
20145;BME280;10233;50.814;6.590;2023-05-23T01:42:32;100424.72;;;15.86;100.00
20145;BME280;10233;50.814;6.590;2023-05-23T01:43:33;100425.28;;;15.88;100.00
20145;BME280;10233;50.814;6.590;2023-05-23T01:44:34;100424.72;;;15.86;100.00
20145;BME280;10233;50.814;6.590;2023-05-23T01:45:35;100422.03;;;15.86;100.00
20145;BME280;10233;50.814;6.590;2023-05-23T01:46:36;100422.03;;;15.86;100.00
20145;BME280;10233;50.814;6.590;2023-05-23T01:47:39;100428.91;;;15.82;100.00
20145;BME280;10233;50.814;6.590;2023-05-23T01:48:41;100426.22;;;15.82;100.00
20145;BME280;10233;50.814;6.590;2023-05-23T01:49:41;100431.00;;;15.80;100.00
20145;BME280;10233;50.814;6.590;2023-05-23T01:50:44;100427.84;;;15.83;100.00
20145;BME280;10233;50.814;6.590;2023-05-23T01:51:46;100434.38;;;15.87;100.00
20145;BME280;10233;50.814;6.590;2023-05-23T01:52:46;100433.56;;;15.87;100.00
20145;BME280;10233;50.814;6.590;2023-05-23T01:53:50;100430.28;;;15.85;100.00
20145;BME280;10233;50.814;6.590;2023-05-23T01:54:51;100438.13;;;15.86;100.00
20145;BME280;10233;50.814;6.590;2023-05-23T01:55:53;100436.94;;;15.82;100.00
20145;BME280;10233;50.814;6.590;2023-05-23T01:56:56;100433.81;;;15.85;100.00
20145;BME280;10233;50.814;6.590;2023-05-23T01:57:58;100438.69;;;15.88;100.00
20145;BME280;10233;50.814;6.590;2023-05-23T01:58:59;100440.31;;;15.89;100.00
20145;BME280;10233;50.814;6.590;2023-05-23T02:00:03;100443.47;;;15.86;100.00
20145;BME280;10233;50.814;6.590;2023-05-23T02:01:14;100437.19;;;15.92;100.00
20145;BME280;10233;50.814;6.590;2023-05-23T02:02:14;100438.59;;;15.95;100.00
20145;BME280;10233;50.814;6.590;2023-05-23T02:03:15;100440.09;;;15.91;100.00
20145;BME280;10233;50.814;6.590;2023-05-23T02:04:15;100447.47;;;15.95;100.00
20145;BME280;10233;50.814;6.590;2023-05-23T02:05:16;100450.84;;;16.02;100.00
20145;BME280;10233;50.814;6.590;2023-05-23T02:06:16;100447.22;;;15.97;100.00
20145;BME280;10233;50.814;6.590;2023-05-23T02:07:17;100454.47;;;15.96;100.00
20145;BME280;10233;50.814;6.590;2023-05-23T02:08:22;100452.00;;;15.95;100.00
20145;BME280;10233;50.814;6.590;2023-05-23T02:09:22;100451.44;;;15.93;100.00
20145;BME280;10233;50.814;6.590;2023-05-23T02:10:23;100452.09;;;15.88;100.00
20145;BME280;10233;50.814;6.590;2023-05-23T02:11:23;100448.13;;;15.91;100.00
20145;BME280;10233;50.814;6.590;2023-05-23T02:12:24;100447.09;;;15.92;100.00
20145;BME280;10233;50.814;6.590;2023-05-23T02:13:24;100454.66;;;15.83;100.00
20145;BME280;10233;50.814;6.590;2023-05-23T02:14:25;100457.25;;;15.90;100.00
20145;BME280;10233;50.814;6.590;2023-05-23T02:15:27;100456.66;;;15.88;100.00
20145;BME280;10233;50.814;6.590;2023-05-23T02:16:28;100456.66;;;15.88;100.00
20145;BME280;10233;50.814;6.590;2023-05-23T02:17:28;100458.28;;;15.89;100.00
20145;BME280;10233;50.814;6.590;2023-05-23T02:18:29;100456.19;;;15.91;100.00
20145;BME280;10233;50.814;6.590;2023-05-23T02:19:30;100460.16;;;15.88;100.00
20145;BME280;10233;50.814;6.590;2023-05-23T02:20:30;100450.38;;;15.94;100.00
20145;BME280;10233;50.814;6.590;2023-05-23T02:21:31;100456.53;;;15.94;100.00
20145;BME280;10233;50.814;6.590;2023-05-23T02:22:31;100464.47;;;15.89;100.00
20145;BME280;10233;50.814;6.590;2023-05-23T02:23:32;100456.41;;;15.89;100.00
20145;BME280;10233;50.814;6.590;2023-05-23T02:24:32;100461.69;;;15.96;100.00
20145;BME280;10233;50.814;6.590;2023-05-23T02:25:33;100454.91;;;15.93;100.00
20145;BME280;10233;50.814;6.590;2023-05-23T02:26:33;100455.97;;;15.92;100.00
20145;BME280;10233;50.814;6.590;2023-05-23T02:27:33;100463.19;;;15.92;100.00
20145;BME280;10233;50.814;6.590;2023-05-23T02:28:34;100457.72;;;15.98;100.00
20145;BME280;10233;50.814;6.590;2023-05-23T02:29:34;100464.00;;;15.92;100.00
20145;BME280;10233;50.814;6.590;2023-05-23T02:30:35;100462.50;;;15.96;100.00
20145;BME280;10233;50.814;6.590;2023-05-23T02:31:35;100459.47;;;15.93;100.00
20145;BME280;10233;50.814;6.590;2023-05-23T02:32:36;100456.53;;;15.94;100.00
20145;BME280;10233;50.814;6.590;2023-05-23T02:33:36;100460.03;;;15.95;100.00
20145;BME280;10233;50.814;6.590;2023-05-23T02:34:37;100458.66;;;15.92;100.00
20145;BME280;10233;50.814;6.590;2023-05-23T02:35:38;100459.81;;;15.96;100.00
20145;BME280;10233;50.814;6.590;2023-05-23T02:36:39;100460.50;;;15.92;100.00
20145;BME280;10233;50.814;6.590;2023-05-23T02:37:39;100461.44;;;15.97;100.00
20145;BME280;10233;50.814;6.590;2023-05-23T02:38:40;100460.88;;;15.95;100.00
20145;BME280;10233;50.814;6.590;2023-05-23T02:39:41;100464.59;;;15.94;100.00
20145;BME280;10233;50.814;6.590;2023-05-23T02:40:42;100461.66;;;15.84;100.00
20145;BME280;10233;50.814;6.590;2023-05-23T02:41:42;100460.03;;;15.83;100.00
20145;BME280;10233;50.814;6.590;2023-05-23T02:42:43;100463.75;;;15.82;100.00
20145;BME280;10233;50.814;6.590;2023-05-23T02:43:45;100460.50;;;15.80;100.00
20145;BME280;10233;50.814;6.590;2023-05-23T02:44:46;100454.88;;;15.82;100.00
20145;BME280;10233;50.814;6.590;2023-05-23T02:45:46;100464.81;;;15.81;100.00
20145;BME280;10233;50.814;6.590;2023-05-23T02:46:47;100461.66;;;15.84;100.00
20145;BME280;10233;50.814;6.590;2023-05-23T02:47:47;100463.31;;;15.85;100.00
20145;BME280;10233;50.814;6.590;2023-05-23T02:48:48;100464.81;;;15.81;100.00
20145;BME280;10233;50.814;6.590;2023-05-23T02:49:49;100465.72;;;15.87;100.00
20145;BME280;10233;50.814;6.590;2023-05-23T02:50:49;100462.81;;;15.88;100.00
20145;BME280;10233;50.814;6.590;2023-05-23T02:51:50;100457.22;;;15.78;100.00
20145;BME280;10233;50.814;6.590;2023-05-23T02:52:50;100456.78;;;15.81;100.00
20145;BME280;10233;50.814;6.590;2023-05-23T02:53:51;100452.91;;;15.77;100.00
20145;BME280;10233;50.814;6.590;2023-05-23T02:54:52;100463.41;;;15.79;100.00
20145;BME280;10233;50.814;6.590;2023-05-23T02:55:53;100460.34;;;15.75;100.00
20145;BME280;10233;50.814;6.590;2023-05-23T02:56:53;100464.69;;;15.76;100.00
20145;BME280;10233;50.814;6.590;2023-05-23T02:57:55;100457.00;;;15.80;100.00
20145;BME280;10233;50.814;6.590;2023-05-23T02:58:56;100458.41;;;15.82;100.00
20145;BME280;10233;50.814;6.590;2023-05-23T02:59:56;100462.13;;;15.81;100.00
20145;BME280;10233;50.814;6.590;2023-05-23T03:00:57;100461.31;;;15.81;100.00
20145;BME280;10233;50.814;6.590;2023-05-23T03:01:57;100465.38;;;15.83;100.00
20145;BME280;10233;50.814;6.590;2023-05-23T03:02:57;100462.56;;;15.78;100.00
20145;BME280;10233;50.814;6.590;2023-05-23T03:03:58;100465.72;;;15.75;100.00
20145;BME280;10233;50.814;6.590;2023-05-23T03:04:58;100468.78;;;15.79;100.00
20145;BME280;10233;50.814;6.590;2023-05-23T03:06:00;100460.03;;;15.83;100.00
20145;BME280;10233;50.814;6.590;2023-05-23T03:07:01;100472.72;;;15.76;100.00
20145;BME280;10233;50.814;6.590;2023-05-23T03:08:03;100461.88;;;15.71;100.00
20145;BME280;10233;50.814;6.590;2023-05-23T03:09:04;100463.84;;;15.76;100.00
20145;BME280;10233;50.814;6.590;2023-05-23T03:10:06;100471.69;;;15.77;100.00
20145;BME280;10233;50.814;6.590;2023-05-23T03:11:07;100458.28;;;15.77;100.00
20145;BME280;10233;50.814;6.590;2023-05-23T03:12:07;100459.78;;;15.73;100.00
20145;BME280;10233;50.814;6.590;2023-05-23T03:13:07;100466.53;;;15.76;100.00
20145;BME280;10233;50.814;6.590;2023-05-23T03:14:08;100464.91;;;15.75;100.00
20145;BME280;10233;50.814;6.590;2023-05-23T03:15:09;100463.94;;;15.69;100.00
20145;BME280;10233;50.814;6.590;2023-05-23T03:16:12;100471.19;;;15.69;100.00
20145;BME280;10233;50.814;6.590;2023-05-23T03:17:13;100463.50;;;15.72;100.00
20145;BME280;10233;50.814;6.590;2023-05-23T03:18:14;100472.00;;;15.69;100.00
20145;BME280;10233;50.814;6.590;2023-05-23T03:19:15;100467.09;;;15.66;100.00
20145;BME280;10233;50.814;6.590;2023-05-23T03:20:15;100467.91;;;15.67;100.00
20145;BME280;10233;50.814;6.590;2023-05-23T03:21:16;100476.44;;;15.75;100.00
20145;BME280;10233;50.814;6.590;2023-05-23T03:22:16;100470.94;;;15.70;100.00
20145;BME280;10233;50.814;6.590;2023-05-23T03:23:17;100473.50;;;15.65;100.00
20145;BME280;10233;50.814;6.590;2023-05-23T03:24:18;100479.34;;;15.62;100.00
20145;BME280;10233;50.814;6.590;2023-05-23T03:25:19;100484.56;;;15.57;100.00
20145;BME280;10233;50.814;6.590;2023-05-23T03:26:19;100480.25;;;15.56;100.00
20145;BME280;10233;50.814;6.590;2023-05-23T03:27:21;100480.47;;;15.55;100.00
20145;BME280;10233;50.814;6.590;2023-05-23T03:28:21;100475.78;;;15.50;100.00
20145;BME280;10233;50.814;6.590;2023-05-23T03:29:22;100476.38;;;15.52;100.00
20145;BME280;10233;50.814;6.590;2023-05-23T03:30:22;100481.13;;;15.50;100.00
20145;BME280;10233;50.814;6.590;2023-05-23T03:31:23;100486.97;;;15.47;100.00
20145;BME280;10233;50.814;6.590;2023-05-23T03:32:23;100483.25;;;15.48;100.00
20145;BME280;10233;50.814;6.590;2023-05-23T03:33:24;100491.72;;;15.45;100.00
20145;BME280;10233;50.814;6.590;2023-05-23T03:34:24;100492.78;;;15.44;100.00
20145;BME280;10233;50.814;6.590;2023-05-23T03:35:26;100482.06;;;15.44;100.00
20145;BME280;10233;50.814;6.590;2023-05-23T03:36:26;100501.28;;;15.41;100.00
20145;BME280;10233;50.814;6.590;2023-05-23T03:37:27;100499.28;;;15.37;100.00
20145;BME280;10233;50.814;6.590;2023-05-23T03:38:28;100500.53;;;15.34;100.00
20145;BME280;10233;50.814;6.590;2023-05-23T03:39:28;100495.53;;;15.38;100.00
20145;BME280;10233;50.814;6.590;2023-05-23T03:40:30;100503.00;;;15.36;100.00
20145;BME280;10233;50.814;6.590;2023-05-23T03:41:31;100501.16;;;15.36;100.00
20145;BME280;10233;50.814;6.590;2023-05-23T03:42:31;100494.66;;;15.26;100.00
20145;BME280;10233;50.814;6.590;2023-05-23T03:43:31;100508.41;;;15.29;100.00
20145;BME280;10233;50.814;6.590;2023-05-23T03:44:33;100507.81;;;15.27;100.00
20145;BME280;10233;50.814;6.590;2023-05-23T03:45:34;100506.16;;;15.26;100.00
20145;BME280;10233;50.814;6.590;2023-05-23T03:46:37;100511.53;;;15.26;100.00
20145;BME280;10233;50.814;6.590;2023-05-23T03:47:38;100508.50;;;15.23;100.00
20145;BME280;10233;50.814;6.590;2023-05-23T03:48:39;100509.31;;;15.23;100.00
20145;BME280;10233;50.814;6.590;2023-05-23T03:49:39;100506.28;;;15.20;100.00
20145;BME280;10233;50.814;6.590;2023-05-23T03:50:40;100510.22;;;15.17;100.00
20145;BME280;10233;50.814;6.590;2023-05-23T03:51:41;100514.97;;;15.15;100.00
20145;BME280;10233;50.814;6.590;2023-05-23T03:52:41;100514.97;;;15.15;100.00
20145;BME280;10233;50.814;6.590;2023-05-23T03:53:42;100516.22;;;15.13;100.00
20145;BME280;10233;50.814;6.590;2023-05-23T03:54:43;100517.06;;;15.13;100.00
20145;BME280;10233;50.814;6.590;2023-05-23T03:55:43;100524.50;;;15.11;100.00
20145;BME280;10233;50.814;6.590;2023-05-23T03:56:45;100520.19;;;15.10;100.00
20145;BME280;10233;50.814;6.590;2023-05-23T03:57:46;100522.72;;;15.05;100.00
20145;BME280;10233;50.814;6.590;2023-05-23T03:58:46;100521.53;;;15.01;100.00
20145;BME280;10233;50.814;6.590;2023-05-23T03:59:48;100519.66;;;15.02;100.00
20145;BME280;10233;50.814;6.590;2023-05-23T04:00:49;100526.66;;;15.03;100.00
20145;BME280;10233;50.814;6.590;2023-05-23T04:01:52;100522.72;;;15.05;100.00
20145;BME280;10233;50.814;6.590;2023-05-23T04:02:53;100520.25;;;15.04;100.00
20145;BME280;10233;50.814;6.590;2023-05-23T04:03:57;100523.97;;;15.03;100.00
20145;BME280;10233;50.814;6.590;2023-05-23T04:05:00;100528.69;;;15.07;100.00
20145;BME280;10233;50.814;6.590;2023-05-23T04:06:02;100524.34;;;15.06;100.00
20145;BME280;10233;50.814;6.590;2023-05-23T04:07:03;100528.28;;;15.04;100.00
20145;BME280;10233;50.814;6.590;2023-05-23T04:08:05;100525.59;;;15.04;100.00
20145;BME280;10233;50.814;6.590;2023-05-23T04:09:06;100526.66;;;15.03;100.00
20145;BME280;10233;50.814;6.590;2023-05-23T04:10:10;100522.94;;;15.04;100.00
20145;BME280;10233;50.814;6.590;2023-05-23T04:11:11;100525.84;;;15.02;100.00
20145;BME280;10233;50.814;6.590;2023-05-23T04:12:14;100524.19;;;15.01;100.00
20145;BME280;10233;50.814;6.590;2023-05-23T04:13:14;100534.19;;;14.94;100.00
20145;BME280;10233;50.814;6.590;2023-05-23T04:14:15;100531.88;;;14.98;100.00
20145;BME280;10233;50.814;6.590;2023-05-23T04:15:16;100531.44;;;15.01;100.00
20145;BME280;10233;50.814;6.590;2023-05-23T04:16:31;100534.31;;;14.99;100.00
20145;BME280;10233;50.814;6.590;2023-05-23T04:17:33;100536.63;;;14.96;100.00
20145;BME280;10233;50.814;6.590;2023-05-23T04:18:34;100541.78;;;14.97;100.00
20145;BME280;10233;50.814;6.590;2023-05-23T04:19:38;100541.59;;;14.92;100.00
20145;BME280;10233;50.814;6.590;2023-05-23T04:20:40;100539.47;;;15.01;100.00
20145;BME280;10233;50.814;6.590;2023-05-23T04:21:42;100538.84;;;14.99;100.00
20145;BME280;10233;50.814;6.590;2023-05-23T04:22:44;100539.09;;;14.97;100.00
20145;BME280;10233;50.814;6.590;2023-05-23T04:23:45;100537.91;;;14.93;100.00
20145;BME280;10233;50.814;6.590;2023-05-23T04:24:46;100532.09;;;14.96;100.00
20145;BME280;10233;50.814;6.590;2023-05-23T04:25:47;100536.63;;;14.96;100.00
20145;BME280;10233;50.814;6.590;2023-05-23T04:27:05;100538.34;;;14.90;100.00
20145;BME280;10233;50.814;6.590;2023-05-23T04:28:07;100534.19;;;14.94;100.00
20145;BME280;10233;50.814;6.590;2023-05-23T04:29:09;100532.16;;;14.90;100.00
20145;BME280;10233;50.814;6.590;2023-05-23T04:30:11;100536.03;;;14.94;100.00
20145;BME280;10233;50.814;6.590;2023-05-23T04:31:15;100535.22;;;14.93;100.00
20145;BME280;10233;50.814;6.590;2023-05-23T04:32:16;100535.22;;;14.93;100.00
20145;BME280;10233;50.814;6.590;2023-05-23T04:33:18;100534.53;;;14.98;100.00
20145;BME280;10233;50.814;6.590;2023-05-23T04:34:19;100540.34;;;14.95;100.00
20145;BME280;10233;50.814;6.590;2023-05-23T04:35:21;100533.75;;;14.97;100.00
20145;BME280;10233;50.814;6.590;2023-05-23T04:36:22;100534.53;;;14.98;100.00
20145;BME280;10233;50.814;6.590;2023-05-23T04:37:26;100534.97;;;14.95;100.00
20145;BME280;10233;50.814;6.590;2023-05-23T04:38:26;100530.03;;;14.98;100.00
20145;BME280;10233;50.814;6.590;2023-05-23T04:39:27;100534.91;;;15.01;100.00
20145;BME280;10233;50.814;6.590;2023-05-23T04:40:52;100528.06;;;15.05;100.00
20145;BME280;10233;50.814;6.590;2023-05-23T04:42:11;100524.19;;;15.01;100.00
20145;BME280;10233;50.814;6.590;2023-05-23T04:43:20;100529.94;;;15.05;100.00
20145;BME280;10233;50.814;6.590;2023-05-23T04:44:27;100532.22;;;15.01;100.00
20145;BME280;10233;50.814;6.590;2023-05-23T04:45:49;100527.16;;;15.11;100.00
20145;BME280;10233;50.814;6.590;2023-05-23T04:47:01;100528.91;;;15.06;100.00
20145;BME280;10233;50.814;6.590;2023-05-23T04:48:15;100528.22;;;15.10;100.00
20145;BME280;10233;50.814;6.590;2023-05-23T04:49:18;100522.44;;;15.13;100.00
20145;BME280;10233;50.814;6.590;2023-05-23T04:50:21;100526.00;;;15.07;100.00
20145;BME280;10233;50.814;6.590;2023-05-23T04:51:22;100525.38;;;15.05;100.00
20145;BME280;10233;50.814;6.590;2023-05-23T04:52:30;100522.44;;;15.13;100.00
20145;BME280;10233;50.814;6.590;2023-05-23T04:53:33;100529.34;;;15.21;100.00
20145;BME280;10233;50.814;6.590;2023-05-23T04:54:34;100521.97;;;15.16;100.00
20145;BME280;10233;50.814;6.590;2023-05-23T04:55:38;100528.97;;;15.17;100.00
20145;BME280;10233;50.814;6.590;2023-05-23T04:56:41;100530.97;;;15.22;100.00
20145;BME280;10233;50.814;6.590;2023-05-23T04:57:42;100526.50;;;15.16;100.00
20145;BME280;10233;50.814;6.590;2023-05-23T04:58:42;100526.94;;;15.13;100.00
20145;BME280;10233;50.814;6.590;2023-05-23T04:59:45;100525.97;;;15.25;100.00
20145;BME280;10233;50.814;6.590;2023-05-23T05:00:46;100524.22;;;15.37;100.00
20145;BME280;10233;50.814;6.590;2023-05-23T05:01:48;100520.63;;;15.25;100.00
20145;BME280;10233;50.814;6.590;2023-05-23T05:02:49;100528.66;;;15.25;100.00
20145;BME280;10233;50.814;6.590;2023-05-23T05:03:50;100534.22;;;15.24;100.00
20145;BME280;10233;50.814;6.590;2023-05-23T05:04:51;100524.91;;;15.26;100.00
20145;BME280;10233;50.814;6.590;2023-05-23T05:05:52;100524.34;;;15.24;100.00
20145;BME280;10233;50.814;6.590;2023-05-23T05:06:54;100529.00;;;15.29;100.00
20145;BME280;10233;50.814;6.590;2023-05-23T05:07:55;100532.53;;;15.29;100.00
20145;BME280;10233;50.814;6.590;2023-05-23T05:08:55;100527.75;;;15.31;100.00
20145;BME280;10233;50.814;6.590;2023-05-23T05:09:55;100526.13;;;15.30;100.00
20145;BME280;10233;50.814;6.590;2023-05-23T05:10:57;100534.63;;;15.27;100.00
20145;BME280;10233;50.814;6.590;2023-05-23T05:11:58;100536.59;;;15.32;100.00
20145;BME280;10233;50.814;6.590;2023-05-23T05:12:58;100536.69;;;15.25;100.00
20145;BME280;10233;50.814;6.590;2023-05-23T05:14:03;100541.47;;;15.23;100.00
20145;BME280;10233;50.814;6.590;2023-05-23T05:15:04;100536.69;;;15.25;100.00
20145;BME280;10233;50.814;6.590;2023-05-23T05:16:05;100540.06;;;15.21;100.00
20145;BME280;10233;50.814;6.590;2023-05-23T05:17:06;100538.09;;;15.28;100.00
20145;BME280;10233;50.814;6.590;2023-05-23T05:18:15;100534.75;;;15.32;100.00
20145;BME280;10233;50.814;6.590;2023-05-23T05:19:16;100531.25;;;15.32;100.00
20145;BME280;10233;50.814;6.590;2023-05-23T05:20:16;100530.53;;;15.25;100.00
20145;BME280;10233;50.814;6.590;2023-05-23T05:21:17;100540.84;;;15.21;100.00
20145;BME280;10233;50.814;6.590;2023-05-23T05:22:17;100532.66;;;15.16;100.00
20145;BME280;10233;50.814;6.590;2023-05-23T05:23:18;100534.97;;;15.13;100.00
20145;BME280;10233;50.814;6.590;2023-05-23T05:24:18;100544.44;;;15.15;100.00
20145;BME280;10233;50.814;6.590;2023-05-23T05:25:22;100540.97;;;15.15;100.00